sensor_id;sensor_type;location;lat;lon;timestamp;P1;durP1;ratioP1;P2;durP2;ratioP2
974;SDS011;6115;49.296;10.602;2023-06-24T00:04:46;2.30;;;1.80;;
974;SDS011;6115;49.296;10.602;2023-06-24T00:09:47;4.43;;;2.50;;
974;SDS011;6115;49.296;10.602;2023-06-24T00:14:48;3.00;;;2.13;;
974;SDS011;6115;49.296;10.602;2023-06-24T00:19:50;4.00;;;2.63;;
974;SDS011;6115;49.296;10.602;2023-06-24T00:24:54;3.30;;;2.13;;
974;SDS011;6115;49.296;10.602;2023-06-24T00:29:56;3.30;;;2.07;;
974;SDS011;6115;49.296;10.602;2023-06-24T00:34:57;2.20;;;1.67;;
974;SDS011;6115;49.296;10.602;2023-06-24T00:40:00;2.57;;;2.13;;
974;SDS011;6115;49.296;10.602;2023-06-24T00:45:00;2.30;;;1.83;;
974;SDS011;6115;49.296;10.602;2023-06-24T00:50:04;3.07;;;2.50;;
974;SDS011;6115;49.296;10.602;2023-06-24T00:55:05;2.33;;;1.60;;
974;SDS011;6115;49.296;10.602;2023-06-24T01:00:06;2.30;;;1.83;;
974;SDS011;6115;49.296;10.602;2023-06-24T01:05:18;3.63;;;2.50;;
974;SDS011;6115;49.296;10.602;2023-06-24T01:10:23;2.67;;;2.07;;
974;SDS011;6115;49.296;10.602;2023-06-24T01:15:25;3.80;;;2.67;;
974;SDS011;6115;49.296;10.602;2023-06-24T01:20:34;4.10;;;2.00;;
974;SDS011;6115;49.296;10.602;2023-06-24T01:36:07;4.70;;;2.60;;
974;SDS011;6115;49.296;10.602;2023-06-24T01:41:11;3.63;;;2.43;;
974;SDS011;6115;49.296;10.602;2023-06-24T01:46:16;3.30;;;2.73;;
974;SDS011;6115;49.296;10.602;2023-06-24T01:51:20;2.53;;;2.00;;
974;SDS011;6115;49.296;10.602;2023-06-24T01:56:22;2.90;;;2.33;;
974;SDS011;6115;49.296;10.602;2023-06-24T02:01:25;2.90;;;1.83;;
974;SDS011;6115;49.296;10.602;2023-06-24T02:06:28;2.20;;;1.77;;
974;SDS011;6115;49.296;10.602;2023-06-24T02:11:30;2.50;;;2.30;;
974;SDS011;6115;49.296;10.602;2023-06-24T02:16:33;2.60;;;2.20;;
974;SDS011;6115;49.296;10.602;2023-06-24T02:21:35;2.63;;;2.20;;
974;SDS011;6115;49.296;10.602;2023-06-24T02:26:38;3.17;;;2.50;;
974;SDS011;6115;49.296;10.602;2023-06-24T02:31:40;3.20;;;2.50;;
974;SDS011;6115;49.296;10.602;2023-06-24T02:36:41;3.17;;;2.07;;
974;SDS011;6115;49.296;10.602;2023-06-24T02:41:43;2.57;;;2.10;;
974;SDS011;6115;49.296;10.602;2023-06-24T02:46:44;3.50;;;2.47;;
974;SDS011;6115;49.296;10.602;2023-06-24T02:51:47;3.63;;;2.50;;
974;SDS011;6115;49.296;10.602;2023-06-24T02:56:48;3.67;;;2.67;;
974;SDS011;6115;49.296;10.602;2023-06-24T03:01:50;2.60;;;2.23;;
974;SDS011;6115;49.296;10.602;2023-06-24T03:06:51;3.30;;;2.50;;
974;SDS011;6115;49.296;10.602;2023-06-24T03:11:52;3.10;;;2.10;;
974;SDS011;6115;49.296;10.602;2023-06-24T03:16:53;2.33;;;1.93;;
974;SDS011;6115;49.296;10.602;2023-06-24T03:21:54;3.50;;;2.90;;
974;SDS011;6115;49.296;10.602;2023-06-24T03:26:55;2.80;;;2.27;;
974;SDS011;6115;49.296;10.602;2023-06-24T03:31:57;3.07;;;2.70;;
974;SDS011;6115;49.296;10.602;2023-06-24T03:36:57;3.13;;;2.23;;
974;SDS011;6115;49.296;10.602;2023-06-24T03:41:58;3.80;;;2.40;;
974;SDS011;6115;49.296;10.602;2023-06-24T03:46:58;2.20;;;1.90;;
974;SDS011;6115;49.296;10.602;2023-06-24T03:51:59;3.40;;;2.60;;
974;SDS011;6115;49.296;10.602;2023-06-24T03:57:00;3.00;;;2.47;;
974;SDS011;6115;49.296;10.602;2023-06-24T04:02:01;3.80;;;3.33;;
974;SDS011;6115;49.296;10.602;2023-06-24T04:07:02;3.40;;;2.77;;
974;SDS011;6115;49.296;10.602;2023-06-24T04:12:05;3.60;;;2.10;;
974;SDS011;6115;49.296;10.602;2023-06-24T04:17:06;3.80;;;2.87;;
974;SDS011;6115;49.296;10.602;2023-06-24T04:22:06;2.73;;;2.33;;
974;SDS011;6115;49.296;10.602;2023-06-24T04:27:07;3.13;;;2.67;;
974;SDS011;6115;49.296;10.602;2023-06-24T04:32:09;4.60;;;3.60;;
974;SDS011;6115;49.296;10.602;2023-06-24T04:37:09;3.90;;;3.40;;
974;SDS011;6115;49.296;10.602;2023-06-24T04:42:10;4.63;;;2.97;;
974;SDS011;6115;49.296;10.602;2023-06-24T04:47:11;3.00;;;2.67;;
974;SDS011;6115;49.296;10.602;2023-06-24T04:52:13;4.70;;;3.63;;
974;SDS011;6115;49.296;10.602;2023-06-24T04:57:25;4.77;;;3.27;;
974;SDS011;6115;49.296;10.602;2023-06-24T05:02:27;4.90;;;3.47;;
974;SDS011;6115;49.296;10.602;2023-06-24T05:07:28;4.03;;;3.10;;
974;SDS011;6115;49.296;10.602;2023-06-24T05:12:29;4.60;;;3.40;;
974;SDS011;6115;49.296;10.602;2023-06-24T05:17:30;3.80;;;2.93;;
974;SDS011;6115;49.296;10.602;2023-06-24T05:22:30;5.13;;;4.00;;
974;SDS011;6115;49.296;10.602;2023-06-24T05:27:31;4.03;;;3.10;;
974;SDS011;6115;49.296;10.602;2023-06-24T05:32:32;4.67;;;3.10;;
974;SDS011;6115;49.296;10.602;2023-06-24T05:37:32;3.87;;;2.87;;
974;SDS011;6115;49.296;10.602;2023-06-24T05:42:33;5.27;;;3.90;;
974;SDS011;6115;49.296;10.602;2023-06-24T05:47:33;4.00;;;2.80;;
974;SDS011;6115;49.296;10.602;2023-06-24T05:52:34;5.10;;;3.20;;
974;SDS011;6115;49.296;10.602;2023-06-24T05:57:34;5.23;;;3.33;;
974;SDS011;6115;49.296;10.602;2023-06-24T06:02:35;4.07;;;2.63;;
974;SDS011;6115;49.296;10.602;2023-06-24T06:07:36;4.17;;;2.60;;
974;SDS011;6115;49.296;10.602;2023-06-24T06:12:39;2.97;;;2.40;;
974;SDS011;6115;49.296;10.602;2023-06-24T06:17:39;3.43;;;2.70;;
974;SDS011;6115;49.296;10.602;2023-06-24T06:22:40;4.50;;;3.00;;
974;SDS011;6115;49.296;10.602;2023-06-24T06:27:41;2.93;;;2.43;;
974;SDS011;6115;49.296;10.602;2023-06-24T06:32:42;2.50;;;2.20;;
974;SDS011;6115;49.296;10.602;2023-06-24T06:37:42;4.70;;;2.53;;
974;SDS011;6115;49.296;10.602;2023-06-24T06:42:43;2.50;;;1.80;;
974;SDS011;6115;49.296;10.602;2023-06-24T06:47:44;3.00;;;2.20;;
974;SDS011;6115;49.296;10.602;2023-06-24T06:52:44;2.60;;;2.13;;
974;SDS011;6115;49.296;10.602;2023-06-24T06:57:45;2.57;;;1.70;;
974;SDS011;6115;49.296;10.602;2023-06-24T07:02:46;3.30;;;2.10;;
974;SDS011;6115;49.296;10.602;2023-06-24T07:07:46;2.10;;;1.80;;
974;SDS011;6115;49.296;10.602;2023-06-24T07:12:50;2.27;;;1.97;;
974;SDS011;6115;49.296;10.602;2023-06-24T07:17:51;3.10;;;1.70;;
974;SDS011;6115;49.296;10.602;2023-06-24T07:22:52;2.20;;;1.80;;
974;SDS011;6115;49.296;10.602;2023-06-24T07:27:53;2.20;;;1.70;;
974;SDS011;6115;49.296;10.602;2023-06-24T07:32:53;3.87;;;1.90;;
974;SDS011;6115;49.296;10.602;2023-06-24T07:37:54;2.53;;;1.87;;
974;SDS011;6115;49.296;10.602;2023-06-24T07:42:55;2.23;;;2.03;;
974;SDS011;6115;49.296;10.602;2023-06-24T07:47:56;2.30;;;1.70;;
974;SDS011;6115;49.296;10.602;2023-06-24T07:52:57;2.03;;;1.83;;
974;SDS011;6115;49.296;10.602;2023-06-24T07:57:58;2.80;;;2.33;;
974;SDS011;6115;49.296;10.602;2023-06-24T08:02:58;3.30;;;2.37;;
974;SDS011;6115;49.296;10.602;2023-06-24T08:07:59;2.60;;;2.27;;
974;SDS011;6115;49.296;10.602;2023-06-24T08:13:00;2.33;;;1.97;;
974;SDS011;6115;49.296;10.602;2023-06-24T08:18:01;3.00;;;2.70;;
974;SDS011;6115;49.296;10.602;2023-06-24T08:23:01;3.00;;;2.70;;
974;SDS011;6115;49.296;10.602;2023-06-24T08:28:02;4.10;;;2.80;;
974;SDS011;6115;49.296;10.602;2023-06-24T08:33:21;3.00;;;2.50;;
974;SDS011;6115;49.296;10.602;2023-06-24T08:38:22;3.40;;;2.80;;
974;SDS011;6115;49.296;10.602;2023-06-24T08:43:22;4.73;;;3.30;;
974;SDS011;6115;49.296;10.602;2023-06-24T08:48:38;2.63;;;2.33;;
974;SDS011;6115;49.296;10.602;2023-06-24T08:53:42;3.63;;;2.20;;
974;SDS011;6115;49.296;10.602;2023-06-24T08:58:46;2.87;;;1.97;;
974;SDS011;6115;49.296;10.602;2023-06-24T09:03:47;2.70;;;1.87;;
974;SDS011;6115;49.296;10.602;2023-06-24T09:08:57;2.90;;;2.10;;
974;SDS011;6115;49.296;10.602;2023-06-24T09:13:58;3.47;;;1.73;;
974;SDS011;6115;49.296;10.602;2023-06-24T09:18:59;1.83;;;1.50;;
974;SDS011;6115;49.296;10.602;2023-06-24T09:24:00;1.93;;;1.63;;
974;SDS011;6115;49.296;10.602;2023-06-24T09:29:00;2.10;;;1.70;;
974;SDS011;6115;49.296;10.602;2023-06-24T09:34:01;1.93;;;1.63;;
974;SDS011;6115;49.296;10.602;2023-06-24T09:39:05;3.30;;;2.07;;
974;SDS011;6115;49.296;10.602;2023-06-24T09:44:08;2.50;;;1.87;;
974;SDS011;6115;49.296;10.602;2023-06-24T09:49:11;2.63;;;1.90;;
974;SDS011;6115;49.296;10.602;2023-06-24T09:54:12;2.53;;;2.27;;
974;SDS011;6115;49.296;10.602;2023-06-24T09:59:14;2.53;;;2.20;;
974;SDS011;6115;49.296;10.602;2023-06-24T10:04:17;1.90;;;1.30;;
974;SDS011;6115;49.296;10.602;2023-06-24T10:09:19;2.00;;;1.73;;
974;SDS011;6115;49.296;10.602;2023-06-24T10:14:19;2.60;;;1.87;;
974;SDS011;6115;49.296;10.602;2023-06-24T10:19:20;1.97;;;1.50;;
974;SDS011;6115;49.296;10.602;2023-06-24T10:24:29;1.97;;;1.77;;
974;SDS011;6115;49.296;10.602;2023-06-24T10:29:36;2.73;;;1.70;;
974;SDS011;6115;49.296;10.602;2023-06-24T10:39:53;3.90;;;3.17;;
974;SDS011;6115;49.296;10.602;2023-06-24T10:44:55;2.20;;;1.80;;
974;SDS011;6115;49.296;10.602;2023-06-24T10:49:57;2.17;;;1.90;;
974;SDS011;6115;49.296;10.602;2023-06-24T10:54:58;1.80;;;1.33;;
974;SDS011;6115;49.296;10.602;2023-06-24T10:59:59;2.47;;;1.30;;
974;SDS011;6115;49.296;10.602;2023-06-24T11:05:01;2.13;;;1.90;;
974;SDS011;6115;49.296;10.602;2023-06-24T11:10:12;2.87;;;1.67;;
974;SDS011;6115;49.296;10.602;2023-06-24T11:15:14;2.80;;;1.60;;
974;SDS011;6115;49.296;10.602;2023-06-24T11:20:15;2.83;;;1.93;;
974;SDS011;6115;49.296;10.602;2023-06-24T11:25:19;2.40;;;1.63;;
974;SDS011;6115;49.296;10.602;2023-06-24T11:30:24;2.00;;;1.80;;
974;SDS011;6115;49.296;10.602;2023-06-24T11:35:25;2.37;;;1.90;;
974;SDS011;6115;49.296;10.602;2023-06-24T11:40:26;1.70;;;1.20;;
974;SDS011;6115;49.296;10.602;2023-06-24T11:45:26;1.50;;;1.30;;
974;SDS011;6115;49.296;10.602;2023-06-24T11:50:27;1.57;;;1.40;;
974;SDS011;6115;49.296;10.602;2023-06-24T11:55:28;1.80;;;1.50;;
974;SDS011;6115;49.296;10.602;2023-06-24T12:00:38;3.07;;;1.37;;
974;SDS011;6115;49.296;10.602;2023-06-24T12:05:41;1.63;;;1.50;;
974;SDS011;6115;49.296;10.602;2023-06-24T12:10:45;3.20;;;1.50;;
974;SDS011;6115;49.296;10.602;2023-06-24T12:15:46;2.27;;;1.70;;
974;SDS011;6115;49.296;10.602;2023-06-24T12:20:47;1.33;;;1.10;;
974;SDS011;6115;49.296;10.602;2023-06-24T12:25:48;1.60;;;1.20;;
974;SDS011;6115;49.296;10.602;2023-06-24T12:30:49;1.90;;;1.20;;
974;SDS011;6115;49.296;10.602;2023-06-24T12:35:51;2.00;;;1.67;;
974;SDS011;6115;49.296;10.602;2023-06-24T12:40:52;10.00;;;2.13;;
974;SDS011;6115;49.296;10.602;2023-06-24T12:45:53;3.67;;;1.53;;
974;SDS011;6115;49.296;10.602;2023-06-24T12:50:55;2.30;;;1.53;;
974;SDS011;6115;49.296;10.602;2023-06-24T12:55:59;1.57;;;1.20;;
974;SDS011;6115;49.296;10.602;2023-06-24T13:00:59;1.60;;;1.30;;
974;SDS011;6115;49.296;10.602;2023-06-24T13:06:00;1.70;;;1.10;;
974;SDS011;6115;49.296;10.602;2023-06-24T13:11:00;3.97;;;1.87;;
974;SDS011;6115;49.296;10.602;2023-06-24T13:16:01;6.70;;;1.13;;
974;SDS011;6115;49.296;10.602;2023-06-24T13:21:02;1.97;;;1.50;;
974;SDS011;6115;49.296;10.602;2023-06-24T13:26:02;1.83;;;1.40;;
974;SDS011;6115;49.296;10.602;2023-06-24T13:31:03;2.03;;;1.43;;
974;SDS011;6115;49.296;10.602;2023-06-24T13:36:04;1.40;;;1.10;;
974;SDS011;6115;49.296;10.602;2023-06-24T13:41:07;2.00;;;1.47;;
974;SDS011;6115;49.296;10.602;2023-06-24T13:46:08;1.40;;;1.20;;
974;SDS011;6115;49.296;10.602;2023-06-24T13:51:08;2.50;;;1.37;;
974;SDS011;6115;49.296;10.602;2023-06-24T13:56:09;1.73;;;1.47;;
974;SDS011;6115;49.296;10.602;2023-06-24T14:01:10;1.63;;;1.23;;
974;SDS011;6115;49.296;10.602;2023-06-24T14:06:10;1.93;;;1.67;;
974;SDS011;6115;49.296;10.602;2023-06-24T14:11:16;1.20;;;1.10;;
974;SDS011;6115;49.296;10.602;2023-06-24T14:16:17;1.60;;;1.50;;
974;SDS011;6115;49.296;10.602;2023-06-24T14:21:19;2.27;;;2.07;;
974;SDS011;6115;49.296;10.602;2023-06-24T14:26:20;1.63;;;1.40;;
974;SDS011;6115;49.296;10.602;2023-06-24T14:31:20;2.57;;;1.30;;
974;SDS011;6115;49.296;10.602;2023-06-24T14:36:21;1.83;;;1.40;;
974;SDS011;6115;49.296;10.602;2023-06-24T14:41:22;1.50;;;1.40;;
974;SDS011;6115;49.296;10.602;2023-06-24T14:46:22;1.63;;;1.37;;
974;SDS011;6115;49.296;10.602;2023-06-24T14:51:24;2.70;;;1.60;;
974;SDS011;6115;49.296;10.602;2023-06-24T14:56:25;1.97;;;1.77;;
974;SDS011;6115;49.296;10.602;2023-06-24T15:01:27;1.87;;;1.47;;
974;SDS011;6115;49.296;10.602;2023-06-24T15:06:27;1.70;;;1.30;;
974;SDS011;6115;49.296;10.602;2023-06-24T15:11:28;1.90;;;1.50;;
974;SDS011;6115;49.296;10.602;2023-06-24T15:16:29;1.60;;;1.40;;
974;SDS011;6115;49.296;10.602;2023-06-24T15:21:29;1.50;;;1.40;;
974;SDS011;6115;49.296;10.602;2023-06-24T15:26:30;1.80;;;1.30;;
974;SDS011;6115;49.296;10.602;2023-06-24T15:31:30;1.87;;;1.50;;
974;SDS011;6115;49.296;10.602;2023-06-24T15:36:31;1.67;;;1.40;;
974;SDS011;6115;49.296;10.602;2023-06-24T15:41:32;2.40;;;1.93;;
974;SDS011;6115;49.296;10.602;2023-06-24T15:46:32;3.23;;;1.87;;
974;SDS011;6115;49.296;10.602;2023-06-24T15:51:33;6.40;;;1.70;;
974;SDS011;6115;49.296;10.602;2023-06-24T15:56:33;2.40;;;1.70;;
974;SDS011;6115;49.296;10.602;2023-06-24T16:01:34;2.13;;;1.83;;
974;SDS011;6115;49.296;10.602;2023-06-24T16:06:34;3.10;;;1.50;;
974;SDS011;6115;49.296;10.602;2023-06-24T16:11:35;1.70;;;1.43;;
974;SDS011;6115;49.296;10.602;2023-06-24T16:16:36;1.63;;;1.53;;
974;SDS011;6115;49.296;10.602;2023-06-24T16:21:37;2.13;;;1.47;;
974;SDS011;6115;49.296;10.602;2023-06-24T16:26:37;2.30;;;1.70;;
974;SDS011;6115;49.296;10.602;2023-06-24T16:31:38;1.73;;;1.40;;
974;SDS011;6115;49.296;10.602;2023-06-24T16:36:38;1.77;;;1.40;;
974;SDS011;6115;49.296;10.602;2023-06-24T16:41:39;2.73;;;1.60;;
974;SDS011;6115;49.296;10.602;2023-06-24T16:46:43;2.63;;;1.90;;
974;SDS011;6115;49.296;10.602;2023-06-24T16:51:43;1.90;;;1.33;;
974;SDS011;6115;49.296;10.602;2023-06-24T16:56:44;2.13;;;1.60;;
974;SDS011;6115;49.296;10.602;2023-06-24T17:01:44;1.73;;;1.30;;
974;SDS011;6115;49.296;10.602;2023-06-24T17:06:45;1.80;;;1.10;;
974;SDS011;6115;49.296;10.602;2023-06-24T17:11:46;1.87;;;1.37;;
974;SDS011;6115;49.296;10.602;2023-06-24T17:16:46;2.03;;;1.57;;
974;SDS011;6115;49.296;10.602;2023-06-24T17:21:47;3.20;;;1.77;;
974;SDS011;6115;49.296;10.602;2023-06-24T17:26:48;1.60;;;1.40;;
974;SDS011;6115;49.296;10.602;2023-06-24T17:31:48;2.70;;;1.70;;
974;SDS011;6115;49.296;10.602;2023-06-24T17:36:49;1.77;;;1.43;;
974;SDS011;6115;49.296;10.602;2023-06-24T17:41:50;1.87;;;1.33;;
974;SDS011;6115;49.296;10.602;2023-06-24T17:46:50;2.00;;;1.37;;
974;SDS011;6115;49.296;10.602;2023-06-24T17:51:51;2.13;;;1.60;;
974;SDS011;6115;49.296;10.602;2023-06-24T17:56:52;3.53;;;1.73;;
974;SDS011;6115;49.296;10.602;2023-06-24T18:01:53;1.87;;;1.50;;
974;SDS011;6115;49.296;10.602;2023-06-24T18:06:53;3.03;;;1.70;;
974;SDS011;6115;49.296;10.602;2023-06-24T18:11:54;1.53;;;1.20;;
974;SDS011;6115;49.296;10.602;2023-06-24T18:16:54;1.90;;;1.40;;
974;SDS011;6115;49.296;10.602;2023-06-24T18:21:55;2.10;;;1.33;;
974;SDS011;6115;49.296;10.602;2023-06-24T18:26:56;1.57;;;1.17;;
974;SDS011;6115;49.296;10.602;2023-06-24T18:31:57;1.77;;;1.50;;
974;SDS011;6115;49.296;10.602;2023-06-24T18:36:57;2.00;;;1.60;;
974;SDS011;6115;49.296;10.602;2023-06-24T18:41:58;2.30;;;1.50;;
974;SDS011;6115;49.296;10.602;2023-06-24T18:46:58;1.70;;;1.20;;
974;SDS011;6115;49.296;10.602;2023-06-24T18:51:59;3.47;;;1.60;;
974;SDS011;6115;49.296;10.602;2023-06-24T18:57:00;2.30;;;1.30;;
974;SDS011;6115;49.296;10.602;2023-06-24T19:02:01;2.20;;;1.57;;
974;SDS011;6115;49.296;10.602;2023-06-24T19:07:01;2.70;;;1.73;;
974;SDS011;6115;49.296;10.602;2023-06-24T19:12:02;1.73;;;1.57;;
974;SDS011;6115;49.296;10.602;2023-06-24T19:17:03;1.93;;;1.43;;
974;SDS011;6115;49.296;10.602;2023-06-24T19:22:04;1.90;;;1.60;;
974;SDS011;6115;49.296;10.602;2023-06-24T19:27:05;2.20;;;1.80;;
974;SDS011;6115;49.296;10.602;2023-06-24T19:32:07;2.63;;;1.87;;
974;SDS011;6115;49.296;10.602;2023-06-24T19:37:07;2.83;;;2.10;;
974;SDS011;6115;49.296;10.602;2023-06-24T19:42:08;3.30;;;1.83;;
974;SDS011;6115;49.296;10.602;2023-06-24T19:47:08;2.33;;;1.90;;
974;SDS011;6115;49.296;10.602;2023-06-24T19:52:09;2.10;;;1.73;;
974;SDS011;6115;49.296;10.602;2023-06-24T19:57:10;1.90;;;1.70;;
974;SDS011;6115;49.296;10.602;2023-06-24T20:02:10;2.93;;;2.03;;
974;SDS011;6115;49.296;10.602;2023-06-24T20:07:11;3.00;;;2.03;;
974;SDS011;6115;49.296;10.602;2023-06-24T20:12:11;4.53;;;2.33;;
974;SDS011;6115;49.296;10.602;2023-06-24T20:17:12;2.63;;;2.10;;
974;SDS011;6115;49.296;10.602;2023-06-24T20:22:13;2.90;;;2.30;;
974;SDS011;6115;49.296;10.602;2023-06-24T20:27:13;3.10;;;1.97;;
974;SDS011;6115;49.296;10.602;2023-06-24T20:32:14;6.60;;;2.43;;
974;SDS011;6115;49.296;10.602;2023-06-24T20:37:14;3.07;;;2.27;;
974;SDS011;6115;49.296;10.602;2023-06-24T20:42:15;2.60;;;2.23;;
974;SDS011;6115;49.296;10.602;2023-06-24T20:47:16;3.53;;;2.37;;
974;SDS011;6115;49.296;10.602;2023-06-24T20:52:16;3.20;;;2.50;;
974;SDS011;6115;49.296;10.602;2023-06-24T20:57:17;4.77;;;2.20;;
974;SDS011;6115;49.296;10.602;2023-06-24T21:02:18;3.87;;;2.50;;
974;SDS011;6115;49.296;10.602;2023-06-24T21:07:19;2.70;;;2.13;;
974;SDS011;6115;49.296;10.602;2023-06-24T21:12:20;2.23;;;1.73;;
974;SDS011;6115;49.296;10.602;2023-06-24T21:17:20;3.27;;;2.53;;
974;SDS011;6115;49.296;10.602;2023-06-24T21:22:21;3.60;;;2.50;;
974;SDS011;6115;49.296;10.602;2023-06-24T21:27:21;2.80;;;2.30;;
974;SDS011;6115;49.296;10.602;2023-06-24T21:32:22;2.63;;;2.20;;
974;SDS011;6115;49.296;10.602;2023-06-24T21:37:24;2.47;;;1.80;;
974;SDS011;6115;49.296;10.602;2023-06-24T21:42:24;2.83;;;2.20;;
974;SDS011;6115;49.296;10.602;2023-06-24T21:47:25;2.40;;;2.17;;
974;SDS011;6115;49.296;10.602;2023-06-24T21:52:25;3.70;;;2.70;;
974;SDS011;6115;49.296;10.602;2023-06-24T21:57:26;3.43;;;2.70;;
974;SDS011;6115;49.296;10.602;2023-06-24T22:02:27;10.30;;;2.87;;
974;SDS011;6115;49.296;10.602;2023-06-24T22:07:27;3.17;;;2.37;;
974;SDS011;6115;49.296;10.602;2023-06-24T22:12:28;4.20;;;2.60;;
974;SDS011;6115;49.296;10.602;2023-06-24T22:17:28;3.23;;;2.63;;
974;SDS011;6115;49.296;10.602;2023-06-24T22:22:29;3.50;;;2.73;;
974;SDS011;6115;49.296;10.602;2023-06-24T22:27:29;4.03;;;3.10;;
974;SDS011;6115;49.296;10.602;2023-06-24T22:32:30;4.77;;;2.73;;
974;SDS011;6115;49.296;10.602;2023-06-24T22:37:30;4.37;;;2.40;;
974;SDS011;6115;49.296;10.602;2023-06-24T22:42:31;2.93;;;2.40;;
974;SDS011;6115;49.296;10.602;2023-06-24T22:47:32;3.47;;;2.27;;
974;SDS011;6115;49.296;10.602;2023-06-24T22:52:32;4.40;;;2.60;;
974;SDS011;6115;49.296;10.602;2023-06-24T22:57:33;3.40;;;2.30;;
974;SDS011;6115;49.296;10.602;2023-06-24T23:02:33;2.93;;;2.63;;
974;SDS011;6115;49.296;10.602;2023-06-24T23:07:34;5.10;;;3.10;;
974;SDS011;6115;49.296;10.602;2023-06-24T23:12:36;3.60;;;3.07;;
974;SDS011;6115;49.296;10.602;2023-06-24T23:17:36;3.37;;;2.10;;
974;SDS011;6115;49.296;10.602;2023-06-24T23:22:37;3.70;;;3.20;;
974;SDS011;6115;49.296;10.602;2023-06-24T23:27:38;3.00;;;2.53;;
974;SDS011;6115;49.296;10.602;2023-06-24T23:32:39;5.17;;;2.63;;
974;SDS011;6115;49.296;10.602;2023-06-24T23:37:41;4.13;;;3.23;;
974;SDS011;6115;49.296;10.602;2023-06-24T23:42:42;4.33;;;2.80;;
974;SDS011;6115;49.296;10.602;2023-06-24T23:47:44;4.00;;;3.00;;
974;SDS011;6115;49.296;10.602;2023-06-24T23:52:44;4.67;;;3.23;;
974;SDS011;6115;49.296;10.602;2023-06-24T23:57:45;4.93;;;2.90;;
